Terminal Aerodrome Forecast
Issued by NWS

Home | Current Version | Previous Version | Text Only | Print | Product List | Glossary On
Versions: 1 2 3 4 5 6 7 8 9 10 11 12 13 14
000
FTUS44 KLZK 210520
TAFADF
TAF
KADF 210520Z 2106/2206 VRB04KT P6SM SCT250
     FM211200 13008G15KT P6SM SCT080 OVC150
     FM212200 10008G16KT P6SM VCTS SCT050CB BKN100 PROB30 2200/2206
      4SM -TSRA BR BKN020CB=

USA.gov is the U.S. government's official web portal to all federal, state and local government web resources and services.